Address 0xb46204d551b35a971e4be8b07e830b0d93d56faa 1

 
Txn Hash Method
Block
From
To
Value [Txn Fee]
0xa4da78a0619c64482fdf57cabafebc3a06daf815a3c480006f49d36d0f02fde4Swap Exact ETH F...117826692021-10-15 3:13:562 days 20 hrs ago0xb46204d551b35a971e4be8b07e830b0d93d56faaOUT PancakeSwap: Router v20.039 BNB0.0005408
0xb9650f25bc406db8707610a622b633370c0176d5b961e9fbb41556520b40bc7fTransfer117824822021-10-15 3:04:352 days 20 hrs agoBinance: Hot Wallet 9 IN 0xb46204d551b35a971e4be8b07e830b0d93d56faa0.04182482 BNB0.00021
0xa2ad53054fe4b8092f9937b881cc3e44588fee5b183c688ec85d955348f58692Bid117794782021-10-15 0:34:232 days 22 hrs ago0xb46204d551b35a971e4be8b07e830b0d93d56faaOUT 0x926eae99527a9503eadb4c9e927f21f84f20c9770 BNB0.000639145
0x52d9e4d534b35dfb60f6ff488052d8f097b738fd53dd66dbbe5ba7c866aaa069Swap Exact ETH F...117793002021-10-15 0:25:292 days 22 hrs ago0xb46204d551b35a971e4be8b07e830b0d93d56faaOUT PancakeSwap: Router v20.052 BNB0.00060122
0x9b338ca58a6f51218439fc411769d7baca1f8b55e7d82147d7ee411e5f63187eTransfer117792222021-10-15 0:21:352 days 22 hrs agoBinance: Hot Wallet 16 IN 0xb46204d551b35a971e4be8b07e830b0d93d56faa0.04981383 BNB0.00021
0x1c89592ea72cf8bf80fae78cfcf117bf42eb2f0b4232cbf6dab03d690fc6a1550xb6ace2fd117736702021-10-14 19:43:473 days 3 hrs ago0xb46204d551b35a971e4be8b07e830b0d93d56faaOUT 0x5c50d79adc20630aef122ed2cf953e377cddd0f40 BNB0.00026954
0xba86ee10d0efd129ab72349e4006fc8c150db7461dfa54934754f37d6011a81fSwap Exact Token...117736502021-10-14 19:42:473 days 3 hrs ago0xb46204d551b35a971e4be8b07e830b0d93d56faaOUT PancakeSwap: Router v20 BNB0.000637285
0x4353be8ad9be88aa3a4a51d03bcb3c094574e7efe495a49d14812ffc13e7b3a2Swap Exact Token...117534162021-10-14 2:46:263 days 20 hrs ago0xb46204d551b35a971e4be8b07e830b0d93d56faaOUT PancakeSwap: Router v20 BNB0.000637225
0x1e5dec39401c7d39744cfe689b1d7b26163037122bbd08b64a65ad73d5f07d64Swap Exact ETH F...117533682021-10-14 2:44:023 days 20 hrs ago0xb46204d551b35a971e4be8b07e830b0d93d56faaOUT PancakeSwap: Router v20.034 BNB0.00060122
0xf47b330cd389c92940602eb723e3fe65e75ae19ac54f1931217fb39cc9ffc555Transfer117532872021-10-14 2:39:593 days 20 hrs ago0x4719d42a3c9978c108c83a206f1566387c16f105 IN 0xb46204d551b35a971e4be8b07e830b0d93d56faa0.020265 BNB0.000105
0x6bf23104096e9c1192c0404838222d94951f72d3ff5e03169e113f07c2093fe4Transfer117530572021-10-14 2:28:293 days 20 hrs ago0x7a118f43e50fc8b33d6458e7004797a3d93c571f IN 0xb46204d551b35a971e4be8b07e830b0d93d56faa0.018 BNB0.000105
0x8c955af6f615f35bd7d553fc4ad7c84b1851ee5ccf3cdf4400237cc3c73b6c98Transfer117530162021-10-14 2:26:263 days 20 hrs ago0xb46204d551b35a971e4be8b07e830b0d93d56faaOUT0x4719d42a3c9978c108c83a206f1566387c16f1050.021 BNB0.000105
0xb80db44154ed0619add8aef9bec31b28be5f89dcc9bae270897febd19e587d5cTransfer117530012021-10-14 2:25:413 days 20 hrs agoBinance: Hot Wallet 12 IN 0xb46204d551b35a971e4be8b07e830b0d93d56faa0.01589098 BNB0.00021
0xa1b6b55883ebd4236af3d083df3dfd9ab2764e1fcb66efbb438314d8841d73edTransfer116891172021-10-11 20:34:246 days 2 hrs ago0xb46204d551b35a971e4be8b07e830b0d93d56faaOUT0x7a118f43e50fc8b33d6458e7004797a3d93c571f0.0009 BNB0.000105
0x5ce23ef8285ccd060a3076c387ee0c051c4af718b79b8d67bb87c86ff9b02ed1Transfer116889032021-10-11 20:23:426 days 2 hrs ago0xb46204d551b35a971e4be8b07e830b0d93d56faaOUT0x7a118f43e50fc8b33d6458e7004797a3d93c571f0.021 BNB0.000105
0xcaa70392e80685ee105b256b838c6af4a70791265f554dfe7e86c1934fbc3afaTransfer116888372021-10-11 20:20:246 days 2 hrs ago0xb46204d551b35a971e4be8b07e830b0d93d56faaOUT Plant vs Undead: PVU Token0 BNB0.000260365
0x438d46c7b6ea02025419d7ec969419dc5b7887231e141b57d2e73402807db7dcBid116887462021-10-11 20:15:516 days 2 hrs ago0xb46204d551b35a971e4be8b07e830b0d93d56faaOUT 0x926eae99527a9503eadb4c9e927f21f84f20c9770 BNB0.000639085
0x670fc0eff883d081f7503bb8003dbff4b9b877f684012181db63ef54e399d4efSwap Exact ETH F...116885512021-10-11 20:06:066 days 3 hrs ago0xb46204d551b35a971e4be8b07e830b0d93d56faaOUT PancakeSwap: Router v20.3 BNB0.00054086
0xaac7d957b20f165cf8b43a5c037486b09850628fbd73f4235c7a4b4a0b8b1591Transfer116884692021-10-11 20:02:006 days 3 hrs agoBinance: Hot Wallet 16 IN 0xb46204d551b35a971e4be8b07e830b0d93d56faa0.30449533 BNB0.00021
0xf6369178a822504c0564c240e422c90924d854b46a713705fe54330f3f7fb1ac0x44ddc37b116849882021-10-11 16:38:346 days 6 hrs ago0xb46204d551b35a971e4be8b07e830b0d93d56faaOUT 0x5c50d79adc20630aef122ed2cf953e377cddd0f40 BNB0.00132931
0x7c309c307db4c7df03bd28a7b8cfd045cc7ac18739d3153c08f9a24fa29e88350xb6ace2fd116849732021-10-11 16:37:436 days 6 hrs ago0xb46204d551b35a971e4be8b07e830b0d93d56faaOUT 0x5c50d79adc20630aef122ed2cf953e377cddd0f40 BNB0.00026954
0x68cee175f84fe0a03df019c67a8e47d6ed9c54a2ddab0e7babaa503945a4e0090x44ddc37b115709282021-10-07 17:09:2810 days 6 hrs ago0xb46204d551b35a971e4be8b07e830b0d93d56faaOUT 0x5c50d79adc20630aef122ed2cf953e377cddd0f40 BNB0.002168915
0x7b77c829b00ae8d239a3de9d03c4ed4d74eaf91fd8bf360ccefe4e502a5543d9Transfer115709102021-10-07 17:08:3410 days 6 hrs ago0x7a118f43e50fc8b33d6458e7004797a3d93c571f IN 0xb46204d551b35a971e4be8b07e830b0d93d56faa0.01946535 BNB0.000105
0xd6c012b60526bc31e98dbd5b843ea70b304c02473ae5d58c6b7e9bf4edcb4a54Transfer115702722021-10-07 16:36:4010 days 6 hrs ago0x4719d42a3c9978c108c83a206f1566387c16f105 IN 0xb46204d551b35a971e4be8b07e830b0d93d56faa0.021462445899278 BNB0.000105
0x41aade59f267f50a3858b9a1ac9c83ce373854f8ba5cb26e954868e952f1ee57Transfer115686202021-10-07 15:14:0010 days 8 hrs ago0xb46204d551b35a971e4be8b07e830b0d93d56faaOUT0x7a118f43e50fc8b33d6458e7004797a3d93c571f0.0015 BNB0.000105
[ Download CSV Export 
Latest 7 internal transactions
Parent Txn Hash Block From To Value
0xba86ee10d0efd129ab72349e4006fc8c150db7461dfa54934754f37d6011a81f117736502021-10-14 19:42:473 days 3 hrs ago PancakeSwap: Router v20xb46204d551b35a971e4be8b07e830b0d93d56faa0.00438265995083452 BNB
0x4353be8ad9be88aa3a4a51d03bcb3c094574e7efe495a49d14812ffc13e7b3a2117534162021-10-14 2:46:263 days 20 hrs ago PancakeSwap: Router v20xb46204d551b35a971e4be8b07e830b0d93d56faa0.000291680453777369 BNB
0x05ce3c6fc1f6464e1f049522f7cc9094b2cb146302d668998a87f4f9e6da0fe9115390862021-10-06 14:35:2511 days 8 hrs ago PancakeSwap: Router v20xb46204d551b35a971e4be8b07e830b0d93d56faa0.022916719225450185 BNB
0x6f7778d06f336a4aa0ba81eaf361f2d5675afc2b532f7fc2bcd9213e49d5ed15113857682021-10-01 6:07:2016 days 17 hrs ago PancakeSwap: Router v20xb46204d551b35a971e4be8b07e830b0d93d56faa0.000033205947007207 BNB
0xe7c62fa5738310665fe74328c0e4ad7f5b30e1b3ebb4e9f4430cb5575a5eee7f113855812021-10-01 5:57:5916 days 17 hrs ago PancakeSwap: Router v20xb46204d551b35a971e4be8b07e830b0d93d56faa0.025753208228542337 BNB
0xebaca65259961ce9ff09086ac9f1e61ac7c0f9f36c66e2a4e139bc09e77a83fd110324822021-09-18 21:27:3429 days 1 hr ago 0xc590175e458b83680867afd273527ff58f74c02b0xb46204d551b35a971e4be8b07e830b0d93d56faa0.025699194640819189 BNB
0x1ea8ba4520e9b39d4e15cc941b69c135334fdbc78f19fe9601ab82fa61aedbbe110091702021-09-18 1:57:4829 days 21 hrs ago PancakeSwap: Router v20xb46204d551b35a971e4be8b07e830b0d93d56faa0.000518626647014642 BNB
[ Download CSV Export 
Loading

Contract Name:
0 BNB

Compiler Version
0

Optimization Enabled:
0 BNB

Other Settings:
-NA-
Block Transaction Gas Used Reward
Age Block Fee Address BC Fee Address Voting Power Jailed Incoming
Block Uncle Number Difficulty Gas Used Reward
Loading
Loading
Make sure to use the "Vote Down" button for any spammy posts, and the "Vote Up" for interesting conversations.